sensor_id;sensor_type;location;lat;lon;timestamp;temperature;humidity
15991;DHT22;8100;50.994;4.538;2022-10-16T00:00:48;12.40;99.90
15991;DHT22;8100;50.994;4.538;2022-10-16T00:03:36;12.50;99.90
15991;DHT22;8100;50.994;4.538;2022-10-16T00:06:24;12.40;99.90
15991;DHT22;8100;50.994;4.538;2022-10-16T00:09:11;12.50;99.90
15991;DHT22;8100;50.994;4.538;2022-10-16T00:11:58;12.50;99.90
15991;DHT22;8100;50.994;4.538;2022-10-16T00:14:46;12.50;99.90
15991;DHT22;8100;50.994;4.538;2022-10-16T00:17:34;12.50;99.90
15991;DHT22;8100;50.994;4.538;2022-10-16T00:20:21;12.50;99.90
15991;DHT22;8100;50.994;4.538;2022-10-16T00:23:08;12.40;99.90
15991;DHT22;8100;50.994;4.538;2022-10-16T00:25:57;12.30;99.90
15991;DHT22;8100;50.994;4.538;2022-10-16T00:28:46;12.40;99.90
15991;DHT22;8100;50.994;4.538;2022-10-16T00:31:33;12.30;99.90
15991;DHT22;8100;50.994;4.538;2022-10-16T00:34:22;12.50;99.90
15991;DHT22;8100;50.994;4.538;2022-10-16T00:37:09;12.50;99.90
15991;DHT22;8100;50.994;4.538;2022-10-16T00:39:56;12.60;99.90
15991;DHT22;8100;50.994;4.538;2022-10-16T00:42:43;12.70;99.90
15991;DHT22;8100;50.994;4.538;2022-10-16T00:45:30;12.60;99.90
15991;DHT22;8100;50.994;4.538;2022-10-16T00:48:17;12.60;99.90
15991;DHT22;8100;50.994;4.538;2022-10-16T00:51:07;12.50;99.90
15991;DHT22;8100;50.994;4.538;2022-10-16T00:53:55;12.50;99.90
15991;DHT22;8100;50.994;4.538;2022-10-16T00:56:42;12.70;99.90
15991;DHT22;8100;50.994;4.538;2022-10-16T00:59:35;12.80;99.90
15991;DHT22;8100;50.994;4.538;2022-10-16T01:02:23;12.90;99.90
15991;DHT22;8100;50.994;4.538;2022-10-16T01:05:10;13.00;99.90
15991;DHT22;8100;50.994;4.538;2022-10-16T01:08:07;12.90;99.90
15991;DHT22;8100;50.994;4.538;2022-10-16T01:10:59;13.00;99.90
15991;DHT22;8100;50.994;4.538;2022-10-16T01:13:52;13.00;99.90
15991;DHT22;8100;50.994;4.538;2022-10-16T01:16:44;13.00;99.90
15991;DHT22;8100;50.994;4.538;2022-10-16T01:19:47;13.00;99.90
15991;DHT22;8100;50.994;4.538;2022-10-16T01:22:48;13.10;99.90
15991;DHT22;8100;50.994;4.538;2022-10-16T01:28:55;13.10;99.90
15991;DHT22;8100;50.994;4.538;2022-10-16T01:31:47;13.10;99.90
15991;DHT22;8100;50.994;4.538;2022-10-16T01:34:38;13.00;99.90
15991;DHT22;8100;50.994;4.538;2022-10-16T01:37:33;13.00;99.90
15991;DHT22;8100;50.994;4.538;2022-10-16T01:40:24;12.80;99.90
15991;DHT22;8100;50.994;4.538;2022-10-16T01:43:16;12.70;99.90
15991;DHT22;8100;50.994;4.538;2022-10-16T01:46:05;12.70;99.90
15991;DHT22;8100;50.994;4.538;2022-10-16T01:48:54;12.60;99.90
15991;DHT22;8100;50.994;4.538;2022-10-16T01:51:44;12.60;99.90
15991;DHT22;8100;50.994;4.538;2022-10-16T01:54:34;12.70;99.90
15991;DHT22;8100;50.994;4.538;2022-10-16T01:57:23;12.90;99.90
15991;DHT22;8100;50.994;4.538;2022-10-16T02:00:12;12.90;99.90
15991;DHT22;8100;50.994;4.538;2022-10-16T02:03:02;13.00;99.90
15991;DHT22;8100;50.994;4.538;2022-10-16T02:05:52;12.90;99.90
15991;DHT22;8100;50.994;4.538;2022-10-16T02:08:40;13.00;99.90
15991;DHT22;8100;50.994;4.538;2022-10-16T02:11:29;12.90;99.90
15991;DHT22;8100;50.994;4.538;2022-10-16T02:14:17;12.80;99.90
15991;DHT22;8100;50.994;4.538;2022-10-16T02:17:10;12.80;99.90
15991;DHT22;8100;50.994;4.538;2022-10-16T02:20:00;12.80;99.90
15991;DHT22;8100;50.994;4.538;2022-10-16T02:22:48;12.80;99.90
15991;DHT22;8100;50.994;4.538;2022-10-16T02:25:40;12.80;99.90
15991;DHT22;8100;50.994;4.538;2022-10-16T02:28:33;12.80;99.90
15991;DHT22;8100;50.994;4.538;2022-10-16T02:31:28;12.80;99.90
15991;DHT22;8100;50.994;4.538;2022-10-16T02:34:18;12.80;99.90
15991;DHT22;8100;50.994;4.538;2022-10-16T02:37:09;12.70;99.90
15991;DHT22;8100;50.994;4.538;2022-10-16T02:39:57;12.60;99.90
15991;DHT22;8100;50.994;4.538;2022-10-16T02:42:49;12.60;99.90
15991;DHT22;8100;50.994;4.538;2022-10-16T02:45:37;12.60;99.90
15991;DHT22;8100;50.994;4.538;2022-10-16T02:48:24;12.60;99.90
15991;DHT22;8100;50.994;4.538;2022-10-16T02:51:11;12.50;99.90
15991;DHT22;8100;50.994;4.538;2022-10-16T02:54:00;12.60;99.90
15991;DHT22;8100;50.994;4.538;2022-10-16T02:56:47;12.60;99.90
15991;DHT22;8100;50.994;4.538;2022-10-16T02:59:34;12.60;99.90
15991;DHT22;8100;50.994;4.538;2022-10-16T03:02:21;12.70;99.90
15991;DHT22;8100;50.994;4.538;2022-10-16T03:05:09;12.80;99.90
15991;DHT22;8100;50.994;4.538;2022-10-16T03:07:56;12.70;99.90
15991;DHT22;8100;50.994;4.538;2022-10-16T03:10:47;12.70;99.90
15991;DHT22;8100;50.994;4.538;2022-10-16T03:13:34;12.70;99.90
15991;DHT22;8100;50.994;4.538;2022-10-16T03:16:21;12.80;99.90
15991;DHT22;8100;50.994;4.538;2022-10-16T03:19:08;12.80;99.90
15991;DHT22;8100;50.994;4.538;2022-10-16T03:21:56;12.90;99.90
15991;DHT22;8100;50.994;4.538;2022-10-16T03:24:43;12.80;99.90
15991;DHT22;8100;50.994;4.538;2022-10-16T03:27:32;12.70;99.90
15991;DHT22;8100;50.994;4.538;2022-10-16T03:30:19;12.70;99.90
15991;DHT22;8100;50.994;4.538;2022-10-16T03:33:06;12.70;99.90
15991;DHT22;8100;50.994;4.538;2022-10-16T03:35:54;12.70;99.90
15991;DHT22;8100;50.994;4.538;2022-10-16T03:38:42;12.70;99.90
15991;DHT22;8100;50.994;4.538;2022-10-16T03:41:29;12.70;99.90
15991;DHT22;8100;50.994;4.538;2022-10-16T03:44:17;12.60;99.90
15991;DHT22;8100;50.994;4.538;2022-10-16T03:47:04;12.70;99.90
15991;DHT22;8100;50.994;4.538;2022-10-16T03:49:52;12.70;99.90
15991;DHT22;8100;50.994;4.538;2022-10-16T03:52:39;12.70;99.90
15991;DHT22;8100;50.994;4.538;2022-10-16T03:55:26;12.80;99.90
15991;DHT22;8100;50.994;4.538;2022-10-16T03:58:13;12.80;99.90
15991;DHT22;8100;50.994;4.538;2022-10-16T04:01:02;12.80;99.90
15991;DHT22;8100;50.994;4.538;2022-10-16T04:03:49;12.80;99.90
15991;DHT22;8100;50.994;4.538;2022-10-16T04:06:36;12.80;99.90
15991;DHT22;8100;50.994;4.538;2022-10-16T04:09:23;12.80;99.90
15991;DHT22;8100;50.994;4.538;2022-10-16T04:12:10;12.90;99.90
15991;DHT22;8100;50.994;4.538;2022-10-16T04:14:58;12.90;99.90
15991;DHT22;8100;50.994;4.538;2022-10-16T04:17:46;12.80;99.90
15991;DHT22;8100;50.994;4.538;2022-10-16T04:20:34;12.70;99.90
15991;DHT22;8100;50.994;4.538;2022-10-16T04:23:21;12.60;99.90
15991;DHT22;8100;50.994;4.538;2022-10-16T04:26:09;12.50;99.90
15991;DHT22;8100;50.994;4.538;2022-10-16T04:28:57;12.50;99.90
15991;DHT22;8100;50.994;4.538;2022-10-16T04:31:44;12.50;99.90
15991;DHT22;8100;50.994;4.538;2022-10-16T04:34:32;12.60;99.90
15991;DHT22;8100;50.994;4.538;2022-10-16T04:37:23;12.60;99.90
15991;DHT22;8100;50.994;4.538;2022-10-16T04:40:11;12.50;99.90
15991;DHT22;8100;50.994;4.538;2022-10-16T04:42:58;12.50;99.90
15991;DHT22;8100;50.994;4.538;2022-10-16T04:45:45;12.50;99.90
15991;DHT22;8100;50.994;4.538;2022-10-16T04:48:33;12.50;99.90
15991;DHT22;8100;50.994;4.538;2022-10-16T04:51:21;12.40;99.90
15991;DHT22;8100;50.994;4.538;2022-10-16T04:54:08;12.50;99.90
15991;DHT22;8100;50.994;4.538;2022-10-16T04:56:55;12.30;99.90
15991;DHT22;8100;50.994;4.538;2022-10-16T04:59:43;12.30;99.90
15991;DHT22;8100;50.994;4.538;2022-10-16T05:02:30;12.30;99.90
15991;DHT22;8100;50.994;4.538;2022-10-16T05:05:17;12.20;99.90
15991;DHT22;8100;50.994;4.538;2022-10-16T05:08:06;12.10;99.90
15991;DHT22;8100;50.994;4.538;2022-10-16T05:10:53;12.00;99.90
15991;DHT22;8100;50.994;4.538;2022-10-16T05:13:40;12.10;99.90
15991;DHT22;8100;50.994;4.538;2022-10-16T05:16:27;11.90;99.90
15991;DHT22;8100;50.994;4.538;2022-10-16T05:19:16;12.10;99.90
15991;DHT22;8100;50.994;4.538;2022-10-16T05:22:03;12.00;99.90
15991;DHT22;8100;50.994;4.538;2022-10-16T05:24:51;11.90;99.90
15991;DHT22;8100;50.994;4.538;2022-10-16T05:27:38;12.00;99.90
15991;DHT22;8100;50.994;4.538;2022-10-16T05:30:26;12.00;99.90
15991;DHT22;8100;50.994;4.538;2022-10-16T05:33:13;12.00;99.90
15991;DHT22;8100;50.994;4.538;2022-10-16T05:36:01;12.20;99.90
15991;DHT22;8100;50.994;4.538;2022-10-16T05:38:50;11.90;99.90
15991;DHT22;8100;50.994;4.538;2022-10-16T05:41:39;12.10;99.90
15991;DHT22;8100;50.994;4.538;2022-10-16T05:44:26;12.20;99.90
15991;DHT22;8100;50.994;4.538;2022-10-16T05:47:13;12.30;99.90
15991;DHT22;8100;50.994;4.538;2022-10-16T05:50:01;12.20;99.90
15991;DHT22;8100;50.994;4.538;2022-10-16T05:52:49;12.10;99.90
15991;DHT22;8100;50.994;4.538;2022-10-16T05:55:37;12.10;99.90
15991;DHT22;8100;50.994;4.538;2022-10-16T05:58:28;12.20;99.90
15991;DHT22;8100;50.994;4.538;2022-10-16T06:01:17;12.00;99.90
15991;DHT22;8100;50.994;4.538;2022-10-16T06:04:05;12.00;99.90
15991;DHT22;8100;50.994;4.538;2022-10-16T06:06:52;12.10;99.90
15991;DHT22;8100;50.994;4.538;2022-10-16T06:09:39;12.20;99.90
15991;DHT22;8100;50.994;4.538;2022-10-16T06:12:26;12.40;99.90
15991;DHT22;8100;50.994;4.538;2022-10-16T06:15:15;12.30;99.90
15991;DHT22;8100;50.994;4.538;2022-10-16T06:18:02;12.20;99.90
15991;DHT22;8100;50.994;4.538;2022-10-16T06:20:49;12.40;99.90
15991;DHT22;8100;50.994;4.538;2022-10-16T06:23:37;12.40;99.90
15991;DHT22;8100;50.994;4.538;2022-10-16T06:26:26;12.50;99.90
15991;DHT22;8100;50.994;4.538;2022-10-16T06:29:14;12.70;99.90
15991;DHT22;8100;50.994;4.538;2022-10-16T06:32:04;12.80;99.90
15991;DHT22;8100;50.994;4.538;2022-10-16T06:34:51;12.70;99.90
15991;DHT22;8100;50.994;4.538;2022-10-16T06:37:39;12.70;99.90
15991;DHT22;8100;50.994;4.538;2022-10-16T06:40:27;12.80;99.90
15991;DHT22;8100;50.994;4.538;2022-10-16T06:43:14;12.80;99.90
15991;DHT22;8100;50.994;4.538;2022-10-16T06:46:03;12.70;99.90
15991;DHT22;8100;50.994;4.538;2022-10-16T06:48:53;12.80;99.90
15991;DHT22;8100;50.994;4.538;2022-10-16T06:51:40;13.00;99.90
15991;DHT22;8100;50.994;4.538;2022-10-16T06:54:34;13.00;99.90
15991;DHT22;8100;50.994;4.538;2022-10-16T06:57:21;13.10;99.90
15991;DHT22;8100;50.994;4.538;2022-10-16T07:00:09;13.20;99.90
15991;DHT22;8100;50.994;4.538;2022-10-16T07:02:56;13.20;99.90
15991;DHT22;8100;50.994;4.538;2022-10-16T07:05:45;13.30;99.90
15991;DHT22;8100;50.994;4.538;2022-10-16T07:08:33;13.40;99.90
15991;DHT22;8100;50.994;4.538;2022-10-16T07:11:22;13.50;99.90
15991;DHT22;8100;50.994;4.538;2022-10-16T07:14:15;13.60;99.90
15991;DHT22;8100;50.994;4.538;2022-10-16T07:17:03;13.60;99.90
15991;DHT22;8100;50.994;4.538;2022-10-16T07:19:50;13.60;99.90
15991;DHT22;8100;50.994;4.538;2022-10-16T07:22:40;13.60;99.90
15991;DHT22;8100;50.994;4.538;2022-10-16T07:25:27;13.60;99.90
15991;DHT22;8100;50.994;4.538;2022-10-16T07:28:14;13.70;99.90
15991;DHT22;8100;50.994;4.538;2022-10-16T07:31:02;13.70;99.90
15991;DHT22;8100;50.994;4.538;2022-10-16T07:33:53;13.70;99.90
15991;DHT22;8100;50.994;4.538;2022-10-16T07:36:41;13.70;99.90
15991;DHT22;8100;50.994;4.538;2022-10-16T07:39:29;13.80;99.90
15991;DHT22;8100;50.994;4.538;2022-10-16T07:42:16;13.90;99.90
15991;DHT22;8100;50.994;4.538;2022-10-16T07:45:04;14.10;99.90
15991;DHT22;8100;50.994;4.538;2022-10-16T07:47:52;14.10;99.90
15991;DHT22;8100;50.994;4.538;2022-10-16T07:50:39;14.20;99.90
15991;DHT22;8100;50.994;4.538;2022-10-16T07:53:27;14.30;99.90
15991;DHT22;8100;50.994;4.538;2022-10-16T07:56:17;14.40;99.90
15991;DHT22;8100;50.994;4.538;2022-10-16T07:59:04;14.40;99.90
15991;DHT22;8100;50.994;4.538;2022-10-16T08:01:51;14.50;99.90
15991;DHT22;8100;50.994;4.538;2022-10-16T08:04:38;14.50;99.90
15991;DHT22;8100;50.994;4.538;2022-10-16T08:07:25;14.60;99.90
15991;DHT22;8100;50.994;4.538;2022-10-16T08:10:16;14.70;99.90
15991;DHT22;8100;50.994;4.538;2022-10-16T08:13:05;14.80;99.90
15991;DHT22;8100;50.994;4.538;2022-10-16T08:15:54;14.80;99.90
15991;DHT22;8100;50.994;4.538;2022-10-16T08:18:41;14.90;99.90
15991;DHT22;8100;50.994;4.538;2022-10-16T08:21:28;15.00;99.90
15991;DHT22;8100;50.994;4.538;2022-10-16T08:24:15;15.00;99.90
15991;DHT22;8100;50.994;4.538;2022-10-16T08:27:03;15.10;99.90
15991;DHT22;8100;50.994;4.538;2022-10-16T08:29:51;15.10;99.90
15991;DHT22;8100;50.994;4.538;2022-10-16T08:32:39;15.20;99.90
15991;DHT22;8100;50.994;4.538;2022-10-16T08:35:27;15.30;99.90
15991;DHT22;8100;50.994;4.538;2022-10-16T08:38:15;15.30;99.90
15991;DHT22;8100;50.994;4.538;2022-10-16T08:41:22;15.40;99.90
15991;DHT22;8100;50.994;4.538;2022-10-16T08:44:29;15.40;99.90
15991;DHT22;8100;50.994;4.538;2022-10-16T08:47:22;15.50;99.90
15991;DHT22;8100;50.994;4.538;2022-10-16T08:50:12;15.60;99.90
15991;DHT22;8100;50.994;4.538;2022-10-16T08:52:59;15.60;99.90
15991;DHT22;8100;50.994;4.538;2022-10-16T08:55:49;15.60;99.90
15991;DHT22;8100;50.994;4.538;2022-10-16T08:58:37;15.70;99.90
15991;DHT22;8100;50.994;4.538;2022-10-16T09:01:37;15.70;99.90
15991;DHT22;8100;50.994;4.538;2022-10-16T09:04:50;15.90;99.90
15991;DHT22;8100;50.994;4.538;2022-10-16T09:07:44;15.90;99.90
15991;DHT22;8100;50.994;4.538;2022-10-16T09:10:43;16.00;99.90
15991;DHT22;8100;50.994;4.538;2022-10-16T09:13:37;16.00;99.90
15991;DHT22;8100;50.994;4.538;2022-10-16T09:16:30;16.10;99.90
15991;DHT22;8100;50.994;4.538;2022-10-16T09:19:26;16.20;99.90
15991;DHT22;8100;50.994;4.538;2022-10-16T09:22:17;16.10;99.90
15991;DHT22;8100;50.994;4.538;2022-10-16T09:25:11;16.20;99.90
15991;DHT22;8100;50.994;4.538;2022-10-16T09:27:59;16.40;99.90
15991;DHT22;8100;50.994;4.538;2022-10-16T09:30:47;16.50;99.90
15991;DHT22;8100;50.994;4.538;2022-10-16T09:33:37;16.50;99.90
15991;DHT22;8100;50.994;4.538;2022-10-16T09:36:27;16.40;99.90
15991;DHT22;8100;50.994;4.538;2022-10-16T09:39:17;16.60;99.90
15991;DHT22;8100;50.994;4.538;2022-10-16T09:42:10;16.70;99.90
15991;DHT22;8100;50.994;4.538;2022-10-16T09:44:58;16.80;99.90
15991;DHT22;8100;50.994;4.538;2022-10-16T09:47:45;17.00;99.90
15991;DHT22;8100;50.994;4.538;2022-10-16T09:50:33;17.00;99.90
15991;DHT22;8100;50.994;4.538;2022-10-16T09:53:20;16.90;99.90
15991;DHT22;8100;50.994;4.538;2022-10-16T09:56:20;17.10;99.90
15991;DHT22;8100;50.994;4.538;2022-10-16T09:59:11;17.20;99.90
15991;DHT22;8100;50.994;4.538;2022-10-16T10:02:03;17.20;99.90
15991;DHT22;8100;50.994;4.538;2022-10-16T10:04:52;17.20;99.90
15991;DHT22;8100;50.994;4.538;2022-10-16T10:07:43;17.30;99.90
15991;DHT22;8100;50.994;4.538;2022-10-16T10:10:33;17.30;99.90
15991;DHT22;8100;50.994;4.538;2022-10-16T10:13:24;17.30;99.90
15991;DHT22;8100;50.994;4.538;2022-10-16T10:16:12;17.40;99.90
15991;DHT22;8100;50.994;4.538;2022-10-16T10:19:14;17.80;99.90
15991;DHT22;8100;50.994;4.538;2022-10-16T10:22:11;17.70;99.90
15991;DHT22;8100;50.994;4.538;2022-10-16T10:25:30;17.70;99.90
15991;DHT22;8100;50.994;4.538;2022-10-16T10:28:47;17.90;99.90
15991;DHT22;8100;50.994;4.538;2022-10-16T10:31:42;17.90;99.90
15991;DHT22;8100;50.994;4.538;2022-10-16T10:34:55;18.20;99.90
15991;DHT22;8100;50.994;4.538;2022-10-16T10:38:06;18.30;99.90
15991;DHT22;8100;50.994;4.538;2022-10-16T10:41:08;18.50;99.90
15991;DHT22;8100;50.994;4.538;2022-10-16T10:44:07;18.40;99.90
15991;DHT22;8100;50.994;4.538;2022-10-16T10:47:04;18.00;99.90
15991;DHT22;8100;50.994;4.538;2022-10-16T10:50:01;17.90;99.90
15991;DHT22;8100;50.994;4.538;2022-10-16T10:52:57;18.00;99.90
15991;DHT22;8100;50.994;4.538;2022-10-16T10:55:48;18.10;99.90
15991;DHT22;8100;50.994;4.538;2022-10-16T10:59:13;18.30;99.90
15991;DHT22;8100;50.994;4.538;2022-10-16T11:02:10;18.20;99.90
15991;DHT22;8100;50.994;4.538;2022-10-16T11:05:21;18.10;99.90
15991;DHT22;8100;50.994;4.538;2022-10-16T11:08:15;17.80;99.90
15991;DHT22;8100;50.994;4.538;2022-10-16T11:11:08;17.60;99.90
15991;DHT22;8100;50.994;4.538;2022-10-16T11:14:00;17.60;99.90
15991;DHT22;8100;50.994;4.538;2022-10-16T11:16:56;17.50;99.90
15991;DHT22;8100;50.994;4.538;2022-10-16T11:19:48;17.40;99.90
15991;DHT22;8100;50.994;4.538;2022-10-16T11:22:39;17.60;99.90
15991;DHT22;8100;50.994;4.538;2022-10-16T11:25:30;17.90;99.90
15991;DHT22;8100;50.994;4.538;2022-10-16T11:28:20;18.30;99.90
15991;DHT22;8100;50.994;4.538;2022-10-16T11:31:14;18.70;99.90
15991;DHT22;8100;50.994;4.538;2022-10-16T11:34:09;19.10;99.90
15991;DHT22;8100;50.994;4.538;2022-10-16T11:37:07;19.40;99.90
15991;DHT22;8100;50.994;4.538;2022-10-16T11:40:02;19.70;99.90
15991;DHT22;8100;50.994;4.538;2022-10-16T11:42:54;19.40;99.90
15991;DHT22;8100;50.994;4.538;2022-10-16T11:45:48;19.20;99.90
15991;DHT22;8100;50.994;4.538;2022-10-16T11:48:40;18.70;99.90
15991;DHT22;8100;50.994;4.538;2022-10-16T11:51:35;18.90;99.90
15991;DHT22;8100;50.994;4.538;2022-10-16T11:54:28;19.40;99.90
15991;DHT22;8100;50.994;4.538;2022-10-16T11:57:22;19.80;99.90
15991;DHT22;8100;50.994;4.538;2022-10-16T12:00:19;19.90;99.90
15991;DHT22;8100;50.994;4.538;2022-10-16T12:03:15;19.90;99.90
15991;DHT22;8100;50.994;4.538;2022-10-16T12:06:17;19.60;99.90
15991;DHT22;8100;50.994;4.538;2022-10-16T12:09:15;19.20;99.90
15991;DHT22;8100;50.994;4.538;2022-10-16T12:12:03;18.80;99.90
15991;DHT22;8100;50.994;4.538;2022-10-16T12:15:00;18.60;99.90
15991;DHT22;8100;50.994;4.538;2022-10-16T12:17:49;18.50;99.90
15991;DHT22;8100;50.994;4.538;2022-10-16T12:20:36;18.70;99.90
15991;DHT22;8100;50.994;4.538;2022-10-16T12:23:24;19.00;99.90
15991;DHT22;8100;50.994;4.538;2022-10-16T12:26:13;19.40;99.90
15991;DHT22;8100;50.994;4.538;2022-10-16T12:29:13;19.80;99.90
15991;DHT22;8100;50.994;4.538;2022-10-16T12:32:02;20.20;99.90
15991;DHT22;8100;50.994;4.538;2022-10-16T12:34:50;20.60;99.90
15991;DHT22;8100;50.994;4.538;2022-10-16T12:37:38;20.70;99.90
15991;DHT22;8100;50.994;4.538;2022-10-16T12:40:27;21.10;99.90
15991;DHT22;8100;50.994;4.538;2022-10-16T12:43:35;21.00;99.90
15991;DHT22;8100;50.994;4.538;2022-10-16T12:46:35;20.90;99.90
15991;DHT22;8100;50.994;4.538;2022-10-16T12:49:30;20.70;99.90
15991;DHT22;8100;50.994;4.538;2022-10-16T12:52:27;20.20;99.90
15991;DHT22;8100;50.994;4.538;2022-10-16T12:55:17;19.80;99.90
15991;DHT22;8100;50.994;4.538;2022-10-16T12:58:16;19.70;99.90
15991;DHT22;8100;50.994;4.538;2022-10-16T13:01:13;19.50;99.90
15991;DHT22;8100;50.994;4.538;2022-10-16T13:04:40;19.50;99.90
15991;DHT22;8100;50.994;4.538;2022-10-16T13:07:41;19.40;99.90
15991;DHT22;8100;50.994;4.538;2022-10-16T13:10:35;19.40;99.90
15991;DHT22;8100;50.994;4.538;2022-10-16T13:13:47;19.30;99.90
15991;DHT22;8100;50.994;4.538;2022-10-16T13:16:49;19.20;99.90
15991;DHT22;8100;50.994;4.538;2022-10-16T13:19:43;19.20;99.90
15991;DHT22;8100;50.994;4.538;2022-10-16T13:22:36;19.30;99.90
15991;DHT22;8100;50.994;4.538;2022-10-16T13:25:31;19.20;99.90
15991;DHT22;8100;50.994;4.538;2022-10-16T13:28:22;19.10;99.90
15991;DHT22;8100;50.994;4.538;2022-10-16T13:31:15;19.00;99.90
15991;DHT22;8100;50.994;4.538;2022-10-16T13:34:06;18.80;99.90
15991;DHT22;8100;50.994;4.538;2022-10-16T13:36:58;18.90;99.90
15991;DHT22;8100;50.994;4.538;2022-10-16T13:39:45;19.10;99.90
15991;DHT22;8100;50.994;4.538;2022-10-16T13:42:33;19.30;99.90
15991;DHT22;8100;50.994;4.538;2022-10-16T13:45:22;19.50;99.90
15991;DHT22;8100;50.994;4.538;2022-10-16T13:48:11;19.70;99.90
15991;DHT22;8100;50.994;4.538;2022-10-16T13:51:01;19.90;99.90
15991;DHT22;8100;50.994;4.538;2022-10-16T13:53:49;20.00;99.90
15991;DHT22;8100;50.994;4.538;2022-10-16T13:56:39;19.90;99.90
15991;DHT22;8100;50.994;4.538;2022-10-16T13:59:32;19.70;99.90
15991;DHT22;8100;50.994;4.538;2022-10-16T14:02:26;19.50;99.90
15991;DHT22;8100;50.994;4.538;2022-10-16T14:05:14;19.40;99.90
15991;DHT22;8100;50.994;4.538;2022-10-16T14:08:02;19.40;99.90
15991;DHT22;8100;50.994;4.538;2022-10-16T14:10:51;19.40;99.90
15991;DHT22;8100;50.994;4.538;2022-10-16T14:13:43;19.30;99.90
15991;DHT22;8100;50.994;4.538;2022-10-16T14:16:31;19.30;99.90
15991;DHT22;8100;50.994;4.538;2022-10-16T14:19:22;19.40;99.90
15991;DHT22;8100;50.994;4.538;2022-10-16T14:22:30;19.40;99.90
15991;DHT22;8100;50.994;4.538;2022-10-16T14:25:24;19.40;99.90
15991;DHT22;8100;50.994;4.538;2022-10-16T14:28:16;19.40;99.90
15991;DHT22;8100;50.994;4.538;2022-10-16T14:31:25;19.70;99.90
15991;DHT22;8100;50.994;4.538;2022-10-16T14:34:26;20.00;99.90
15991;DHT22;8100;50.994;4.538;2022-10-16T14:37:21;20.00;99.90
15991;DHT22;8100;50.994;4.538;2022-10-16T14:40:14;19.70;99.90
15991;DHT22;8100;50.994;4.538;2022-10-16T14:43:04;19.60;99.90
15991;DHT22;8100;50.994;4.538;2022-10-16T14:45:54;19.20;99.90
15991;DHT22;8100;50.994;4.538;2022-10-16T14:48:43;19.10;99.90
15991;DHT22;8100;50.994;4.538;2022-10-16T14:51:32;18.80;99.90
15991;DHT22;8100;50.994;4.538;2022-10-16T14:54:19;18.60;99.90
15991;DHT22;8100;50.994;4.538;2022-10-16T14:57:16;18.40;99.90
15991;DHT22;8100;50.994;4.538;2022-10-16T15:00:10;18.40;99.90
15991;DHT22;8100;50.994;4.538;2022-10-16T15:03:00;18.50;99.90
15991;DHT22;8100;50.994;4.538;2022-10-16T15:05:48;18.50;99.90
15991;DHT22;8100;50.994;4.538;2022-10-16T15:08:35;18.70;99.90
15991;DHT22;8100;50.994;4.538;2022-10-16T15:11:22;18.80;99.90
15991;DHT22;8100;50.994;4.538;2022-10-16T15:14:12;18.80;99.90
15991;DHT22;8100;50.994;4.538;2022-10-16T15:17:01;18.70;99.90
15991;DHT22;8100;50.994;4.538;2022-10-16T15:19:48;18.70;99.90
15991;DHT22;8100;50.994;4.538;2022-10-16T15:22:35;18.60;99.90
15991;DHT22;8100;50.994;4.538;2022-10-16T15:25:32;18.50;99.90
15991;DHT22;8100;50.994;4.538;2022-10-16T15:28:21;18.40;99.90
15991;DHT22;8100;50.994;4.538;2022-10-16T15:31:08;18.40;99.90
15991;DHT22;8100;50.994;4.538;2022-10-16T15:33:57;18.40;99.90
15991;DHT22;8100;50.994;4.538;2022-10-16T15:36:50;18.30;99.90
15991;DHT22;8100;50.994;4.538;2022-10-16T15:39:37;18.40;99.90
15991;DHT22;8100;50.994;4.538;2022-10-16T15:42:24;18.20;99.90
15991;DHT22;8100;50.994;4.538;2022-10-16T15:45:12;18.20;99.90
15991;DHT22;8100;50.994;4.538;2022-10-16T15:47:59;18.00;99.90
15991;DHT22;8100;50.994;4.538;2022-10-16T15:50:48;17.90;99.90
15991;DHT22;8100;50.994;4.538;2022-10-16T15:53:35;17.70;99.90
15991;DHT22;8100;50.994;4.538;2022-10-16T15:56:22;17.70;99.90
15991;DHT22;8100;50.994;4.538;2022-10-16T15:59:11;17.60;99.90
15991;DHT22;8100;50.994;4.538;2022-10-16T16:01:58;17.50;99.90
15991;DHT22;8100;50.994;4.538;2022-10-16T16:04:45;17.40;99.90
15991;DHT22;8100;50.994;4.538;2022-10-16T16:07:34;17.30;99.90
15991;DHT22;8100;50.994;4.538;2022-10-16T16:10:21;17.30;99.90
15991;DHT22;8100;50.994;4.538;2022-10-16T16:13:09;17.30;99.90
15991;DHT22;8100;50.994;4.538;2022-10-16T16:15:56;17.20;99.90
15991;DHT22;8100;50.994;4.538;2022-10-16T16:18:44;17.10;99.90
15991;DHT22;8100;50.994;4.538;2022-10-16T16:21:32;17.10;99.90
15991;DHT22;8100;50.994;4.538;2022-10-16T16:24:20;17.00;99.90
15991;DHT22;8100;50.994;4.538;2022-10-16T16:27:08;16.90;99.90
15991;DHT22;8100;50.994;4.538;2022-10-16T16:29:55;16.90;99.90
15991;DHT22;8100;50.994;4.538;2022-10-16T16:32:43;16.90;99.90
15991;DHT22;8100;50.994;4.538;2022-10-16T16:35:30;16.80;99.90
15991;DHT22;8100;50.994;4.538;2022-10-16T16:38:17;16.80;99.90
15991;DHT22;8100;50.994;4.538;2022-10-16T16:41:12;16.80;99.90
15991;DHT22;8100;50.994;4.538;2022-10-16T16:44:04;16.70;99.90
15991;DHT22;8100;50.994;4.538;2022-10-16T16:46:52;16.70;99.90
15991;DHT22;8100;50.994;4.538;2022-10-16T16:49:40;16.60;99.90
15991;DHT22;8100;50.994;4.538;2022-10-16T16:52:29;16.60;99.90
15991;DHT22;8100;50.994;4.538;2022-10-16T16:55:16;16.50;99.90
15991;DHT22;8100;50.994;4.538;2022-10-16T16:58:04;16.50;99.90
15991;DHT22;8100;50.994;4.538;2022-10-16T17:00:51;16.40;99.90
15991;DHT22;8100;50.994;4.538;2022-10-16T17:03:42;16.40;99.90
15991;DHT22;8100;50.994;4.538;2022-10-16T17:06:29;16.40;99.90
15991;DHT22;8100;50.994;4.538;2022-10-16T17:09:17;16.30;99.90
15991;DHT22;8100;50.994;4.538;2022-10-16T17:12:04;16.30;99.90
15991;DHT22;8100;50.994;4.538;2022-10-16T17:14:52;16.30;99.90
15991;DHT22;8100;50.994;4.538;2022-10-16T17:17:40;16.20;99.90
15991;DHT22;8100;50.994;4.538;2022-10-16T17:20:27;16.30;99.90
15991;DHT22;8100;50.994;4.538;2022-10-16T17:23:15;16.30;99.90
15991;DHT22;8100;50.994;4.538;2022-10-16T17:26:03;16.40;99.90
15991;DHT22;8100;50.994;4.538;2022-10-16T17:28:52;16.40;99.90
15991;DHT22;8100;50.994;4.538;2022-10-16T17:31:40;16.30;99.90
15991;DHT22;8100;50.994;4.538;2022-10-16T17:34:28;16.20;99.90
15991;DHT22;8100;50.994;4.538;2022-10-16T17:37:15;16.10;99.90
15991;DHT22;8100;50.994;4.538;2022-10-16T17:40:02;16.00;99.90
15991;DHT22;8100;50.994;4.538;2022-10-16T17:42:50;15.90;99.90
15991;DHT22;8100;50.994;4.538;2022-10-16T17:45:37;15.80;99.90
15991;DHT22;8100;50.994;4.538;2022-10-16T17:48:26;15.80;99.90
15991;DHT22;8100;50.994;4.538;2022-10-16T17:51:15;15.70;99.90
15991;DHT22;8100;50.994;4.538;2022-10-16T17:54:03;15.60;99.90
15991;DHT22;8100;50.994;4.538;2022-10-16T17:56:50;15.60;99.90
15991;DHT22;8100;50.994;4.538;2022-10-16T17:59:37;15.60;99.90
15991;DHT22;8100;50.994;4.538;2022-10-16T18:02:24;15.40;99.90
15991;DHT22;8100;50.994;4.538;2022-10-16T18:05:13;15.50;99.90
15991;DHT22;8100;50.994;4.538;2022-10-16T18:08:00;15.30;99.90
15991;DHT22;8100;50.994;4.538;2022-10-16T18:10:49;15.40;99.90
15991;DHT22;8100;50.994;4.538;2022-10-16T18:13:36;15.30;99.90
15991;DHT22;8100;50.994;4.538;2022-10-16T18:16:25;15.40;99.90